Minnekata, South Dakota
Current Conditions -  °F | °C
As of 10:53 PM on Thursday 30 Oct 2014 (Local Time) from KCUT Reporting Station
Moderate Fog Moderate Fog  
Wind Chill: 22°   Ceiling: 100
Heat Index: 29°   Visibility: 0.25mi
Dew Point: 27°   Wind: 7mph
Humidity: 92%   Direction: 60°ENE
Pressure: 30.4"   Gusts: NA
Location:  43.346°N, 103.483°W
Report Text: KCUT 310453Z AUTO 06006KT 1/4SM FZFG VV001 M02/M03 A3040 RMK AO2 SLP294 I1001 T10171028
Loading
Personal Weather Stations






























Interactive Weather Map New forecast layout! Learn more

10-Day Weather Forecast

Advertisements
Track Severe Weather on mobile